Weather at Veum Airstrip

Public forecast

Using degrees Celsius for public forecast. Weather courtesy of forecast.io.

Closest aviation weather report (METAR) to Veum Airstrip

Closest report is Moss Airport, Rygge, 8.4 nm (15.6 km) NNW. Retrieved 2021/04/12 20:50 UTC (15 minutes ago):

ENRY 122050Z AUTO 32002KT 9999NDV DZ BKN010/// BKN016/// OVC027/// 02/01 Q1014 REUP

Closest aviation forecast (TAF) to Veum Airstrip

Closest forecast is Moss Airport, Rygge, 8.4 nm (15.6 km) NNW. Retrieved 2021/04/12 18:57 UTC (2 hours ago):

TAF ENRY 121700Z 1218/1318 34008KT 9999 -SHRA SCT008 BKN020 TEMPO 1218/1303 2000 SHSNRA BKN008 FEW020CB